ADDS METAR Data INFO
IDs: Format: Raw Decoded Include TAF

Data at: 1958 UTC 15 Dec 2017

KVGT 151953Z 13003KT 10SM CLR 14/M10 A3020 RMK AO2 SLP245 T01391100
KVGT 151853Z 14003KT 10SM CLR 13/M09 A3025 RMK AO2 SLP259 T01281089
KVGT 151753Z 14003KT 10SM CLR 11/M08 A3028 RMK AO2 SLP273 T01111083 10111 20028 50000
KVGT 151653Z 00000KT 10SM CLR 10/M07 A3029 RMK AO2 SLP277 T01001072
KVGT 151553Z 32005KT 10SM CLR 06/M07 A3029 RMK AO2 SLP277 T00561072
KVGT 151453Z 00000KT 10SM CLR 04/M07 A3028 RMK AO2 SLP273 T00391072 55005
KVGT 151353Z 00000KT 10SM CLR 04/M08 A3028 RMK AO2 SLP272 T00391083
KVGT 151253Z AUTO 33005KT 10SM CLR 04/M07 A3028 RMK AO2 SLP274 T00391072
KVGT 151153Z AUTO 34004KT 10SM CLR 04/M08 A3030 RMK AO2 SLP277 T00391083 10094 20033 50001
KVGT 151053Z AUTO 36004KT 10SM CLR 06/M09 A3031 RMK AO2 SLP278 T00561094
KVGT 150953Z AUTO 33003KT 10SM CLR 06/M09 A3029 RMK AO2 SLP273 T00561094
KVGT 150853Z AUTO 00000KT 10SM CLR 07/M07 A3030 RMK AO2 SLP274 T00721072 50002
KVGT 150753Z AUTO 29004KT 10SM CLR 07/M07 A3030 RMK AO2 SLP275 T00721072 402000067
KVGT 150653Z AUTO 30004KT 10SM CLR 09/M07 A3030 RMK AO2 SLP275 T00941067
KVGT 150553Z AUTO 31004KT 10SM CLR 08/M08 A3029 RMK AO2 SLP273 T00831078 10194 20078 53014
KVGT 150453Z AUTO 27004KT 10SM CLR 11/M07 A3027 RMK AO2 SLP265 T01111072
KVGT 150353Z AUTO 23003KT 10SM CLR 13/M07 A3026 RMK AO2 SLP260 T01331072
KVGT 150253Z 07006KT 10SM CLR 16/M09 A3025 RMK AO2 SLP255 T01611089 53017
KVGT 150153Z VRB03KT 10SM CLR 16/M10 A3023 RMK AO2 SLP249 T01561100
KVGT 150053Z 02005KT 10SM CLR 17/M09 A3021 RMK AO2 SLP239 T01721094
KVGT 142353Z 35010KT 10SM CLR 19/M09 A3019 RMK AO2 SLP233 T01941094 10200 20161 55001
KVGT 142253Z 35010KT 10SM CLR 20/M09 A3019 RMK AO2 SLP229 T02001089
KVGT 142153Z 01010G17KT 10SM CLR 20/M08 A3019 RMK AO2 SLP230 T02001083
KVGT 142053Z 34011KT 10SM CLR 19/M08 A3020 RMK AO2 SLP238 T01891078 58013
KVGT 141953Z 36013G20KT 10SM CLR 18/M07 A3023 RMK AO2 PK WND 33026/1920 SLP247 T01831072
KVGT 141853Z 33020G26KT 10SM CLR 17/M07 A3024 RMK AO2 PK WND 34030/1806 SLP251 T01721067
KVGT 141753Z 35015G29KT 10SM CLR 16/M07 A3024 RMK AO2 PK WND 36032/1728 SLP255 T01611067 10161 20128 53019
KVGT 141653Z 35017G24KT 10SM CLR 15/M08 A3022 RMK AO2 PK WND 35027/1615 SLP244 T01501083
KVGT 141553Z 35017G24KT 10SM CLR 14/M09 A3019 RMK AO2 SLP238 T01441089
KVGT 141453Z 35012KT 10SM CLR 13/M12 A3018 RMK AO2 SLP235 T01281122 51025
KVGT 141353Z 01013G23KT 10SM CLR 13/M14 A3017 RMK AO2 SLP228 T01331144
KVGT 141253Z AUTO 01010G18KT 10SM CLR 14/M17 A3013 RMK AO2 SLP211 T01441167
KVGT 141153Z AUTO 01014KT 10SM CLR 14/M19 A3010 RMK AO2 SLP201 T01441189 10161 20094 51027
KVGT 141053Z AUTO 03013KT 10SM CLR 15/M19 A3008 RMK AO2 SLP192 T01501189
KVGT 140953Z AUTO 36004KT 10SM CLR 13/M19 A3005 RMK AO2 SLP182 T01331189
KVGT 140853Z AUTO 27005KT 10SM CLR 10/M15 A3002 RMK AO2 SLP176 T01001150 53007